createdAt,value
2016-08-29T00:00:17.098Z,994
2016-08-29T00:00:41.214Z,994
2016-08-29T00:01:05.330Z,994
2016-08-29T00:01:29.442Z,994
2016-08-29T00:01:53.556Z,994
2016-08-29T00:02:17.685Z,994
2016-08-29T00:02:41.816Z,994
2016-08-29T00:03:05.940Z,994
2016-08-29T00:03:30.064Z,994
2016-08-29T00:03:54.173Z,994
2016-08-29T00:04:18.311Z,994
2016-08-29T00:04:42.456Z,994
2016-08-29T00:05:06.602Z,994
2016-08-29T00:05:30.731Z,994.1
2016-08-29T00:05:54.872Z,994
2016-08-29T00:06:19.003Z,994.1
2016-08-29T00:06:43.149Z,994.1
2016-08-29T00:07:07.304Z,994.1
2016-08-29T00:07:31.427Z,994.2
2016-08-29T00:07:55.561Z,994.2
2016-08-29T00:08:19.726Z,994.1
2016-08-29T00:08:43.884Z,994.1
2016-08-29T00:09:08.034Z,994.1
2016-08-29T00:09:32.153Z,994.1
2016-08-29T00:09:56.311Z,994
2016-08-29T00:10:20.457Z,994
2016-08-29T00:10:44.595Z,994
2016-08-29T00:11:08.719Z,994
2016-08-29T00:11:32.876Z,993.9
2016-08-29T00:11:57.014Z,993.9
2016-08-29T00:12:21.144Z,993.9
2016-08-29T00:12:45.273Z,993.9
2016-08-29T00:13:09.424Z,993.9
2016-08-29T00:13:33.536Z,993.9
2016-08-29T00:13:57.652Z,993.9
2016-08-29T00:14:21.786Z,993.8
2016-08-29T00:14:45.927Z,993.8
2016-08-29T00:15:10.040Z,993.8
2016-08-29T00:15:34.164Z,993.8
2016-08-29T00:15:58.336Z,993.8
2016-08-29T00:16:22.482Z,993.8
2016-08-29T00:16:46.631Z,993.8
2016-08-29T00:17:10.750Z,993.8
2016-08-29T00:17:34.887Z,993.8
2016-08-29T00:17:58.993Z,993.8
2016-08-29T00:18:23.110Z,993.8
2016-08-29T00:18:47.223Z,993.9
2016-08-29T00:19:11.349Z,993.9
2016-08-29T00:19:35.454Z,993.9
2016-08-29T00:19:59.559Z,993.9
2016-08-29T00:20:23.676Z,994
2016-08-29T00:20:47.786Z,994
2016-08-29T00:21:11.906Z,994
2016-08-29T00:21:36.015Z,994
2016-08-29T00:22:00.120Z,993.9
2016-08-29T00:22:24.238Z,993.9
2016-08-29T00:22:48.351Z,993.9
2016-08-29T00:23:12.483Z,993.9
2016-08-29T00:23:36.615Z,993.9
2016-08-29T00:24:00.755Z,993.8
2016-08-29T00:24:24.880Z,993.9
2016-08-29T00:24:49.014Z,993.9
2016-08-29T00:25:13.149Z,993.9
2016-08-29T00:25:37.259Z,993.9
2016-08-29T00:26:01.376Z,993.9
2016-08-29T00:26:25.496Z,993.9
2016-08-29T00:26:49.615Z,993.9
2016-08-29T00:27:13.726Z,993.9
2016-08-29T00:27:37.843Z,993.9
2016-08-29T00:28:01.963Z,993.9
2016-08-29T00:28:26.086Z,993.9
2016-08-29T00:28:50.185Z,993.9
2016-08-29T00:29:14.306Z,993.9
2016-08-29T00:29:38.424Z,993.8
2016-08-29T00:30:02.547Z,993.8
2016-08-29T00:30:26.659Z,993.8
2016-08-29T00:30:50.762Z,993.9
2016-08-29T00:31:14.869Z,993.8
2016-08-29T00:31:38.991Z,993.8
2016-08-29T00:32:03.100Z,993.8
2016-08-29T00:32:27.250Z,993.8
2016-08-29T00:32:51.345Z,993.8
2016-08-29T00:33:15.459Z,993.9
2016-08-29T00:33:39.590Z,993.9
2016-08-29T00:34:03.711Z,993.9
2016-08-29T00:34:27.832Z,993.9
2016-08-29T00:34:51.959Z,993.9
2016-08-29T00:35:16.074Z,993.9
2016-08-29T00:35:40.220Z,993.9
2016-08-29T00:36:04.329Z,993.9
2016-08-29T00:36:28.473Z,993.9
2016-08-29T00:36:52.603Z,993.9
2016-08-29T00:37:16.734Z,993.9
2016-08-29T00:37:40.849Z,993.8
2016-08-29T00:38:04.983Z,993.9
2016-08-29T00:38:29.092Z,993.9
2016-08-29T00:38:53.197Z,993.9
2016-08-29T00:39:17.345Z,993.9
2016-08-29T00:39:41.478Z,993.9
2016-08-29T00:40:05.592Z,993.9
2016-08-29T00:40:29.728Z,993.9
2016-08-29T00:40:53.844Z,993.9
2016-08-29T00:41:17.956Z,993.9
2016-08-29T00:41:42.072Z,993.9
2016-08-29T00:42:06.180Z,993.9
2016-08-29T00:42:30.298Z,993.9
2016-08-29T00:42:54.411Z,993.8
2016-08-29T00:43:18.512Z,993.8
2016-08-29T00:43:42.662Z,993.8
2016-08-29T00:44:06.784Z,993.8
2016-08-29T00:44:30.883Z,993.8
2016-08-29T00:44:55.017Z,993.8
2016-08-29T00:45:19.144Z,993.8
2016-08-29T00:45:43.277Z,993.8
2016-08-29T00:46:07.378Z,993.8
2016-08-29T00:46:31.508Z,993.8
2016-08-29T00:46:55.637Z,993.8
2016-08-29T00:47:19.764Z,993.8
2016-08-29T00:47:43.883Z,993.8
2016-08-29T00:48:07.984Z,993.7
2016-08-29T00:48:32.121Z,993.8
2016-08-29T00:48:56.239Z,993.8
2016-08-29T00:49:20.347Z,993.8
2016-08-29T00:49:44.459Z,993.7
2016-08-29T00:50:08.581Z,993.8
2016-08-29T00:50:32.695Z,993.7
2016-08-29T00:50:56.849Z,993.7
2016-08-29T00:51:20.984Z,993.7
2016-08-29T00:51:45.097Z,993.8
2016-08-29T00:52:09.209Z,993.7
2016-08-29T00:52:33.338Z,993.8
2016-08-29T00:52:57.475Z,993.8
2016-08-29T00:53:21.609Z,993.8
2016-08-29T00:53:45.743Z,993.8
2016-08-29T00:54:09.855Z,993.8
2016-08-29T00:54:33.969Z,993.8
2016-08-29T00:54:58.067Z,993.8
2016-08-29T00:55:22.192Z,993.8
2016-08-29T00:55:46.364Z,993.8
2016-08-29T00:56:10.476Z,993.8
2016-08-29T00:56:34.582Z,993.8
2016-08-29T00:56:58.717Z,993.8
2016-08-29T00:57:22.827Z,993.8
2016-08-29T00:57:46.950Z,993.9
2016-08-29T00:58:11.066Z,993.9
2016-08-29T00:58:35.175Z,993.9
2016-08-29T00:58:59.282Z,993.9
2016-08-29T00:59:23.373Z,993.9
2016-08-29T00:59:47.491Z,993.9
2016-08-29T01:00:11.625Z,993.9
2016-08-29T01:00:35.738Z,993.9
2016-08-29T01:00:59.850Z,993.9
2016-08-29T01:01:23.973Z,993.9
2016-08-29T01:01:48.105Z,993.9
2016-08-29T01:02:12.251Z,993.9
2016-08-29T01:02:36.366Z,993.9
2016-08-29T01:03:00.499Z,993.9
2016-08-29T01:03:24.607Z,993.9
2016-08-29T01:03:48.737Z,993.9
2016-08-29T01:04:12.867Z,993.9
2016-08-29T01:04:36.977Z,993.9
2016-08-29T01:05:01.099Z,993.9
2016-08-29T01:05:25.209Z,994
2016-08-29T01:05:49.324Z,994
2016-08-29T01:06:13.449Z,993.9
2016-08-29T01:06:37.581Z,993.9
2016-08-29T01:07:01.679Z,993.9
2016-08-29T01:07:25.801Z,994
2016-08-29T01:07:49.929Z,993.9
2016-08-29T01:08:14.028Z,994
2016-08-29T01:08:38.160Z,993.9
2016-08-29T01:09:02.279Z,993.9
2016-08-29T01:09:26.412Z,993.9
2016-08-29T01:09:50.505Z,993.9
2016-08-29T01:10:14.611Z,993.8
2016-08-29T01:10:38.738Z,993.8
2016-08-29T01:11:02.848Z,993.8
2016-08-29T01:11:26.947Z,993.8
2016-08-29T01:11:51.097Z,993.8
2016-08-29T01:12:15.224Z,993.8
2016-08-29T01:12:39.344Z,993.8
2016-08-29T01:13:03.464Z,993.9
2016-08-29T01:13:27.590Z,993.8
2016-08-29T01:13:51.700Z,993.8
2016-08-29T01:14:15.807Z,993.9
2016-08-29T01:14:39.946Z,993.8
2016-08-29T01:15:04.086Z,993.9
2016-08-29T01:15:28.198Z,993.9
2016-08-29T01:15:52.310Z,993.9
2016-08-29T01:16:16.422Z,993.9
2016-08-29T01:16:40.534Z,993.8
2016-08-29T01:17:04.615Z,993.8
2016-08-29T01:17:28.725Z,993.8
2016-08-29T01:17:52.854Z,993.8
2016-08-29T01:18:16.983Z,993.8
2016-08-29T01:18:41.094Z,993.8
2016-08-29T01:19:05.216Z,993.8
2016-08-29T01:19:29.337Z,993.8
2016-08-29T01:19:53.464Z,993.8
2016-08-29T01:20:17.591Z,993.9
2016-08-29T01:20:41.735Z,993.9
2016-08-29T01:21:05.877Z,993.9
2016-08-29T01:21:30.015Z,993.9
2016-08-29T01:21:54.151Z,994
2016-08-29T01:22:18.275Z,993.9
2016-08-29T01:22:42.404Z,994
2016-08-29T01:23:06.543Z,994
2016-08-29T01:23:30.685Z,994
2016-08-29T01:23:54.817Z,994
2016-08-29T01:24:18.937Z,993.9
2016-08-29T01:24:43.056Z,994
2016-08-29T01:25:07.187Z,994
2016-08-29T01:25:31.315Z,994
2016-08-29T01:25:55.421Z,994
2016-08-29T01:26:19.535Z,994
2016-08-29T01:26:43.657Z,994
2016-08-29T01:27:07.771Z,994
2016-08-29T01:27:31.909Z,994
2016-08-29T01:27:56.034Z,994.1
2016-08-29T01:28:20.149Z,994.1
2016-08-29T01:28:44.260Z,994.1
2016-08-29T01:29:08.405Z,994.1
2016-08-29T01:29:32.535Z,994.1
2016-08-29T01:29:56.653Z,994.1
2016-08-29T01:30:20.770Z,994.1
2016-08-29T01:30:44.886Z,994.1
2016-08-29T01:31:09.024Z,994.1
2016-08-29T01:31:33.146Z,994.1
2016-08-29T01:31:57.259Z,994.1
2016-08-29T01:32:21.373Z,994
2016-08-29T01:32:45.493Z,994.1
2016-08-29T01:33:09.590Z,994.1
2016-08-29T01:33:33.677Z,994.1
2016-08-29T01:33:57.784Z,994
2016-08-29T01:34:21.887Z,994
2016-08-29T01:34:45.995Z,994
2016-08-29T01:35:10.119Z,994.1
2016-08-29T01:35:34.249Z,994.1
2016-08-29T01:35:58.353Z,994.1
2016-08-29T01:36:22.453Z,994
2016-08-29T01:36:46.807Z,994
2016-08-29T01:37:10.949Z,994
2016-08-29T01:37:35.074Z,994
2016-08-29T01:37:59.195Z,994.1
2016-08-29T01:38:23.322Z,994
2016-08-29T01:38:47.444Z,994
2016-08-29T01:39:11.536Z,994
2016-08-29T01:39:35.655Z,994
2016-08-29T01:39:59.782Z,994
2016-08-29T01:40:23.910Z,994
2016-08-29T01:40:48.028Z,994
2016-08-29T01:41:12.177Z,994
2016-08-29T01:41:36.298Z,994
2016-08-29T01:42:00.403Z,994
2016-08-29T01:42:24.523Z,994
2016-08-29T01:42:48.651Z,994
2016-08-29T01:43:12.778Z,994
2016-08-29T01:43:36.887Z,994
2016-08-29T01:44:01.009Z,994
2016-08-29T01:44:25.137Z,994
2016-08-29T01:44:49.238Z,993.9
2016-08-29T01:45:13.335Z,994
2016-08-29T01:45:37.438Z,994
2016-08-29T01:46:01.575Z,994
2016-08-29T01:46:25.693Z,993.9
2016-08-29T01:46:49.794Z,994
2016-08-29T01:47:13.897Z,994
2016-08-29T01:47:38.016Z,994
2016-08-29T01:48:02.102Z,994
2016-08-29T01:48:26.215Z,994
2016-08-29T01:48:50.333Z,994
2016-08-29T01:49:14.444Z,994
2016-08-29T01:49:38.539Z,994
2016-08-29T01:50:02.647Z,993.9
2016-08-29T01:50:26.762Z,994
2016-08-29T01:50:50.887Z,993.9
2016-08-29T01:51:14.995Z,994
2016-08-29T01:51:39.127Z,993.9
2016-08-29T01:52:03.255Z,993.9
2016-08-29T01:52:27.373Z,994
2016-08-29T01:52:51.465Z,994
2016-08-29T01:53:15.569Z,994
2016-08-29T01:53:39.677Z,993.9
2016-08-29T01:54:03.784Z,994
2016-08-29T01:54:27.923Z,994
2016-08-29T01:54:52.051Z,994
2016-08-29T01:55:16.167Z,994
2016-08-29T01:55:40.267Z,994.1
2016-08-29T01:56:04.382Z,994
2016-08-29T01:56:28.535Z,994.1
2016-08-29T01:56:52.639Z,994.1
2016-08-29T01:57:16.768Z,994.1
2016-08-29T01:57:40.898Z,994.1
2016-08-29T01:58:05.017Z,994.1
2016-08-29T01:58:29.099Z,994.1
2016-08-29T01:58:53.215Z,994.1
2016-08-29T01:59:17.351Z,994.2
2016-08-29T01:59:41.462Z,994.2
2016-08-29T02:00:05.576Z,994.2
2016-08-29T02:00:29.712Z,994.2
2016-08-29T02:00:53.828Z,994.2
2016-08-29T02:01:17.940Z,994.2
2016-08-29T02:01:42.073Z,994.2
2016-08-29T02:02:06.169Z,994.2
2016-08-29T02:02:30.300Z,994.2
2016-08-29T02:02:54.417Z,994.2
2016-08-29T02:03:18.562Z,994.2
2016-08-29T02:03:42.767Z,994.2
2016-08-29T02:04:06.877Z,994.2
2016-08-29T02:04:30.997Z,994.3
2016-08-29T02:04:55.100Z,994.3
2016-08-29T02:05:19.230Z,994.2
2016-08-29T02:05:43.353Z,994.2
2016-08-29T02:06:07.478Z,994.2
2016-08-29T02:06:31.581Z,994.2
2016-08-29T02:06:55.678Z,994.2
2016-08-29T02:07:19.790Z,994.2
2016-08-29T02:07:43.925Z,994.2
2016-08-29T02:08:08.057Z,994.2
2016-08-29T02:08:32.176Z,994.3
2016-08-29T02:08:56.306Z,994.3
2016-08-29T02:09:20.451Z,994.3
2016-08-29T02:09:44.576Z,994.3
2016-08-29T02:10:08.681Z,994.3
2016-08-29T02:10:32.786Z,994.3
2016-08-29T02:10:56.898Z,994.3
2016-08-29T02:11:21.020Z,994.3
2016-08-29T02:11:45.128Z,994.4
2016-08-29T02:12:09.241Z,994.4
2016-08-29T02:12:33.362Z,994.4
2016-08-29T02:12:57.472Z,994.3
2016-08-29T02:13:21.597Z,994.3
2016-08-29T02:13:45.715Z,994.3
2016-08-29T02:14:09.830Z,994.3
2016-08-29T02:14:33.922Z,994.3
2016-08-29T02:14:58.019Z,994.3
2016-08-29T02:15:22.147Z,994.3
2016-08-29T02:15:46.277Z,994.3
2016-08-29T02:16:10.379Z,994.3
2016-08-29T02:16:34.493Z,994.3
2016-08-29T02:16:58.604Z,994.3
2016-08-29T02:17:22.705Z,994.4
2016-08-29T02:17:46.821Z,994.4
2016-08-29T02:18:10.960Z,994.4
2016-08-29T02:18:35.099Z,994.4
2016-08-29T02:18:59.202Z,994.4
2016-08-29T02:19:23.309Z,994.4
2016-08-29T02:19:47.507Z,994.4
2016-08-29T02:20:11.620Z,994.4
2016-08-29T02:20:35.728Z,994.4
2016-08-29T02:20:59.854Z,994.4
2016-08-29T02:21:23.963Z,994.3
2016-08-29T02:21:48.070Z,994.3
2016-08-29T02:22:12.189Z,994.4
2016-08-29T02:22:36.324Z,994.3
2016-08-29T02:23:00.457Z,994.3
2016-08-29T02:23:24.594Z,994.3
2016-08-29T02:23:48.702Z,994.3
2016-08-29T02:24:12.841Z,994.3
2016-08-29T02:24:36.974Z,994.3
2016-08-29T02:25:01.085Z,994.2
2016-08-29T02:25:25.179Z,994.2
2016-08-29T02:25:49.274Z,994.3
2016-08-29T02:26:13.380Z,994.3
2016-08-29T02:26:37.516Z,994.2
2016-08-29T02:27:01.624Z,994.2
2016-08-29T02:27:25.751Z,994.3
2016-08-29T02:27:49.868Z,994.3
2016-08-29T02:28:13.951Z,994.2
2016-08-29T02:28:38.068Z,994.2
2016-08-29T02:29:02.191Z,994.2
2016-08-29T02:29:26.298Z,994.2
2016-08-29T02:29:50.410Z,994.2
2016-08-29T02:30:14.528Z,994.2
2016-08-29T02:30:38.641Z,994.2
2016-08-29T02:31:02.742Z,994.1
2016-08-29T02:31:26.847Z,994.1
2016-08-29T02:31:50.959Z,994.2
2016-08-29T02:32:15.103Z,994.2
2016-08-29T02:32:39.197Z,994.2
2016-08-29T02:33:03.318Z,994.1
2016-08-29T02:33:27.428Z,994.1
2016-08-29T02:33:51.545Z,994.2
2016-08-29T02:34:15.652Z,994.2
2016-08-29T02:34:39.761Z,994.2
2016-08-29T02:35:03.869Z,994.2
2016-08-29T02:35:27.965Z,994.2
2016-08-29T02:35:52.072Z,994.2
2016-08-29T02:36:16.185Z,994.2
2016-08-29T02:36:40.314Z,994.2
2016-08-29T02:37:04.416Z,994.2
2016-08-29T02:37:28.541Z,994.2
2016-08-29T02:37:52.655Z,994.2
2016-08-29T02:38:16.751Z,994.2
2016-08-29T02:38:40.852Z,994.2
2016-08-29T02:39:04.998Z,994.2
2016-08-29T02:39:29.131Z,994.2
2016-08-29T02:39:53.220Z,994.3
2016-08-29T02:40:17.352Z,994.3
2016-08-29T02:40:41.467Z,994.2
2016-08-29T02:41:05.583Z,994.2
2016-08-29T02:41:29.677Z,994.2
2016-08-29T02:41:53.801Z,994.3
2016-08-29T02:42:17.924Z,994.3
2016-08-29T02:42:42.043Z,994.2
2016-08-29T02:43:06.137Z,994.3
2016-08-29T02:43:30.262Z,994.2
2016-08-29T02:43:54.393Z,994.3
2016-08-29T02:44:18.496Z,994.3
2016-08-29T02:44:42.609Z,994.3
2016-08-29T02:45:06.717Z,994.3
2016-08-29T02:45:30.837Z,994.3
2016-08-29T02:45:54.960Z,994.3
2016-08-29T02:46:19.074Z,994.2
2016-08-29T02:46:43.199Z,994.3
2016-08-29T02:47:07.306Z,994.2
2016-08-29T02:47:31.400Z,994.3
2016-08-29T02:47:55.518Z,994.2
2016-08-29T02:48:19.643Z,994.2
2016-08-29T02:48:43.770Z,994.3
2016-08-29T02:49:07.878Z,994.3
2016-08-29T02:49:31.998Z,994.3
2016-08-29T02:49:56.120Z,994.2
2016-08-29T02:50:20.224Z,994.3
2016-08-29T02:50:44.328Z,994.3
2016-08-29T02:51:08.446Z,994.3
2016-08-29T02:51:32.583Z,994.3
2016-08-29T02:51:57.451Z,994.3
2016-08-29T02:52:21.577Z,994.3
2016-08-29T02:52:45.700Z,994.3
2016-08-29T02:53:09.821Z,994.3
2016-08-29T02:53:33.959Z,994.3
2016-08-29T02:53:58.077Z,994.3
2016-08-29T02:54:22.204Z,994.3
2016-08-29T02:54:46.318Z,994.3
2016-08-29T02:55:10.448Z,994.3
2016-08-29T02:55:34.563Z,994.3
2016-08-29T02:55:58.694Z,994.3
2016-08-29T02:56:22.810Z,994.3
2016-08-29T02:56:46.940Z,994.3
2016-08-29T02:57:11.075Z,994.3
2016-08-29T02:57:35.178Z,994.3
2016-08-29T02:57:59.275Z,994.3
2016-08-29T02:58:23.393Z,994.3
2016-08-29T02:58:47.501Z,994.3
2016-08-29T02:59:11.631Z,994.2
2016-08-29T02:59:35.743Z,994.3
2016-08-29T02:59:59.853Z,994.3
2016-08-29T03:00:23.982Z,994.2
2016-08-29T03:00:48.102Z,994.2
2016-08-29T03:01:12.222Z,994.2
2016-08-29T03:01:36.358Z,994.2
2016-08-29T03:02:00.468Z,994.2
2016-08-29T03:02:24.570Z,994.2
2016-08-29T03:02:48.686Z,994.2
2016-08-29T03:03:12.803Z,994.2
2016-08-29T03:03:36.926Z,994.2
2016-08-29T03:04:01.018Z,994.2
2016-08-29T03:04:25.142Z,994.2
2016-08-29T03:04:49.280Z,994.2
2016-08-29T03:05:13.394Z,994.3
2016-08-29T03:05:37.518Z,994.2
2016-08-29T03:06:01.638Z,994.3
2016-08-29T03:06:25.747Z,994.3
2016-08-29T03:06:49.835Z,994.3
2016-08-29T03:07:13.935Z,994.3
2016-08-29T03:07:38.062Z,994.3
2016-08-29T03:08:02.164Z,994.3
2016-08-29T03:08:26.275Z,994.3
2016-08-29T03:08:50.428Z,994.3
2016-08-29T03:09:14.540Z,994.4
2016-08-29T03:09:38.639Z,994.3
2016-08-29T03:10:02.751Z,994.3
2016-08-29T03:10:26.910Z,994.3
2016-08-29T03:10:51.083Z,994.3
2016-08-29T03:11:15.179Z,994.3
2016-08-29T03:11:39.283Z,994.3
2016-08-29T03:12:03.486Z,994.3
2016-08-29T03:12:27.611Z,994.3
2016-08-29T03:12:51.747Z,994.3
2016-08-29T03:13:15.865Z,994.3
2016-08-29T03:13:39.985Z,994.3
2016-08-29T03:14:04.078Z,994.3
2016-08-29T03:14:28.214Z,994.3
2016-08-29T03:14:52.330Z,994.3
2016-08-29T03:15:16.421Z,994.3
2016-08-29T03:15:40.532Z,994.3
2016-08-29T03:16:04.665Z,994.3
2016-08-29T03:16:28.787Z,994.3
2016-08-29T03:16:52.882Z,994.3
2016-08-29T03:17:17.044Z,994.2
2016-08-29T03:17:41.158Z,994.2
2016-08-29T03:18:05.255Z,994.2
2016-08-29T03:18:29.352Z,994.2
2016-08-29T03:18:53.464Z,994.2
2016-08-29T03:19:17.597Z,994.2
2016-08-29T03:19:41.697Z,994.2
2016-08-29T03:20:05.842Z,994.2
2016-08-29T03:20:30.351Z,994.2
2016-08-29T03:20:54.463Z,994.2
2016-08-29T03:21:18.569Z,994.2
2016-08-29T03:21:42.706Z,994.2
2016-08-29T03:22:06.817Z,994.2
2016-08-29T03:22:30.917Z,994.2
2016-08-29T03:22:55.030Z,994.3
2016-08-29T03:23:19.169Z,994.2
2016-08-29T03:23:43.277Z,994.2
2016-08-29T03:24:07.386Z,994.3
2016-08-29T03:24:31.493Z,994.2
2016-08-29T03:24:55.620Z,994.2
2016-08-29T03:25:19.712Z,994.2
2016-08-29T03:25:43.835Z,994.2
2016-08-29T03:26:07.957Z,994.2
2016-08-29T03:26:32.109Z,994.2
2016-08-29T03:26:56.205Z,994.3
2016-08-29T03:27:20.313Z,994.2
2016-08-29T03:27:44.456Z,994.3
2016-08-29T03:28:08.545Z,994.2
2016-08-29T03:28:32.644Z,994.2
2016-08-29T03:28:56.763Z,994.2
2016-08-29T03:29:20.884Z,994.2
2016-08-29T03:29:44.972Z,994.2
2016-08-29T03:30:09.673Z,994.2
2016-08-29T03:30:33.795Z,994.1
2016-08-29T03:30:57.913Z,994.2
2016-08-29T03:31:22.019Z,994.2
2016-08-29T03:31:46.133Z,994.1
2016-08-29T03:32:10.965Z,994.1
2016-08-29T03:32:35.053Z,994.2
2016-08-29T03:32:59.162Z,994.2
2016-08-29T03:33:23.287Z,994.2
2016-08-29T03:33:47.396Z,994.2
2016-08-29T03:34:11.500Z,994.2
2016-08-29T03:34:35.600Z,994.2
2016-08-29T03:34:59.726Z,994.2
2016-08-29T03:35:23.824Z,994.2
2016-08-29T03:35:47.936Z,994.2
2016-08-29T03:36:12.055Z,994.2
2016-08-29T03:36:36.168Z,994.2
2016-08-29T03:37:00.263Z,994.2
2016-08-29T03:37:24.390Z,994.2
2016-08-29T03:37:48.521Z,994.2
2016-08-29T03:38:12.617Z,994.2
2016-08-29T03:38:36.755Z,994.3
2016-08-29T03:39:00.861Z,994.2
2016-08-29T03:39:24.969Z,994.3
2016-08-29T03:39:49.098Z,994.3
2016-08-29T03:40:13.211Z,994.3
2016-08-29T03:40:37.313Z,994.3
2016-08-29T03:41:01.423Z,994.3
2016-08-29T03:41:25.559Z,994.3
2016-08-29T03:41:49.670Z,994.3
2016-08-29T03:42:13.793Z,994.3
2016-08-29T03:42:37.892Z,994.4
2016-08-29T03:43:01.990Z,994.3
2016-08-29T03:43:26.126Z,994.3
2016-08-29T03:43:50.254Z,994.4
2016-08-29T03:44:14.344Z,994.4
2016-08-29T03:44:38.467Z,994.4
2016-08-29T03:45:02.621Z,994.4
2016-08-29T03:45:26.789Z,994.4
2016-08-29T03:45:50.905Z,994.4
2016-08-29T03:46:15.035Z,994.3
2016-08-29T03:46:39.150Z,994.4
2016-08-29T03:47:03.275Z,994.4
2016-08-29T03:47:27.401Z,994.3
2016-08-29T03:47:51.514Z,994.3
2016-08-29T03:48:15.617Z,994.3
2016-08-29T03:48:39.734Z,994.3
2016-08-29T03:49:03.839Z,994.4
2016-08-29T03:49:27.949Z,994.4
2016-08-29T03:49:52.044Z,994.4
2016-08-29T03:50:16.149Z,994.4
2016-08-29T03:50:40.265Z,994.4
2016-08-29T03:51:04.377Z,994.4
2016-08-29T03:51:28.499Z,994.4
2016-08-29T03:51:52.647Z,994.4
2016-08-29T03:52:16.764Z,994.4
2016-08-29T03:52:40.868Z,994.4
2016-08-29T03:53:04.981Z,994.4
2016-08-29T03:53:29.093Z,994.4
2016-08-29T03:53:53.192Z,994.4
2016-08-29T03:54:17.321Z,994.4
2016-08-29T03:54:41.454Z,994.4
2016-08-29T03:55:05.618Z,994.4
2016-08-29T03:55:29.725Z,994.4
2016-08-29T03:55:53.846Z,994.4
2016-08-29T03:56:17.974Z,994.4
2016-08-29T03:56:42.081Z,994.4
2016-08-29T03:57:06.195Z,994.4
2016-08-29T03:57:30.326Z,994.4
2016-08-29T03:57:54.432Z,994.4
2016-08-29T03:58:18.554Z,994.4
2016-08-29T03:58:42.667Z,994.4
2016-08-29T03:59:06.798Z,994.4
2016-08-29T03:59:30.910Z,994.4
2016-08-29T03:59:55.038Z,994.4
2016-08-29T04:00:19.163Z,994.3
2016-08-29T04:00:43.273Z,994.4
2016-08-29T04:01:07.393Z,994.4
2016-08-29T04:01:31.512Z,994.3
2016-08-29T04:01:55.640Z,994.3
2016-08-29T04:02:19.743Z,994.3
2016-08-29T04:02:43.863Z,994.3
2016-08-29T04:03:07.958Z,994.3
2016-08-29T04:03:32.062Z,994.3
2016-08-29T04:03:56.171Z,994.3
2016-08-29T04:04:20.305Z,994.3
2016-08-29T04:04:44.430Z,994.3
2016-08-29T04:05:08.560Z,994.3
2016-08-29T04:05:32.994Z,994.3
2016-08-29T04:05:57.093Z,994.3
2016-08-29T04:06:21.207Z,994.3
2016-08-29T04:06:45.316Z,994.4
2016-08-29T04:07:09.442Z,994.4
2016-08-29T04:07:33.565Z,994.4
2016-08-29T04:07:57.690Z,994.4
2016-08-29T04:08:21.811Z,994.4
2016-08-29T04:08:45.928Z,994.4
2016-08-29T04:09:10.032Z,994.4
2016-08-29T04:09:34.143Z,994.4
2016-08-29T04:09:58.265Z,994.5
2016-08-29T04:10:22.924Z,994.4
2016-08-29T04:10:47.037Z,994.5
2016-08-29T04:11:11.140Z,994.5
2016-08-29T04:11:35.269Z,994.5
2016-08-29T04:11:59.401Z,994.4
2016-08-29T04:12:23.512Z,994.4
2016-08-29T04:12:47.637Z,994.5
2016-08-29T04:13:11.754Z,994.5
2016-08-29T04:13:35.855Z,994.5
2016-08-29T04:13:59.976Z,994.5
2016-08-29T04:14:24.091Z,994.5
2016-08-29T04:14:48.213Z,994.5
2016-08-29T04:15:12.315Z,994.5
2016-08-29T04:15:36.442Z,994.5
2016-08-29T04:16:00.562Z,994.5
2016-08-29T04:16:24.689Z,994.5
2016-08-29T04:16:48.797Z,994.6
2016-08-29T04:17:12.943Z,994.6
2016-08-29T04:17:37.070Z,994.6
2016-08-29T04:18:01.162Z,994.6
2016-08-29T04:18:25.279Z,994.6
2016-08-29T04:18:49.416Z,994.6
2016-08-29T04:19:13.534Z,994.6
2016-08-29T04:19:37.637Z,994.6
2016-08-29T04:20:01.772Z,994.6
2016-08-29T04:20:25.917Z,994.6
2016-08-29T04:20:50.019Z,994.6
2016-08-29T04:21:14.134Z,994.6
2016-08-29T04:21:38.242Z,994.6
2016-08-29T04:22:02.344Z,994.6
2016-08-29T04:22:26.471Z,994.6
2016-08-29T04:22:50.621Z,994.6
2016-08-29T04:23:14.774Z,994.6
2016-08-29T04:23:38.894Z,994.6
2016-08-29T04:24:03.012Z,994.6
2016-08-29T04:24:27.144Z,994.6
2016-08-29T04:24:51.278Z,994.6
2016-08-29T04:25:15.389Z,994.6
2016-08-29T04:25:39.488Z,994.6
2016-08-29T04:26:03.614Z,994.6
2016-08-29T04:26:27.723Z,994.6
2016-08-29T04:26:51.844Z,994.6
2016-08-29T04:27:15.993Z,994.6
2016-08-29T04:27:40.137Z,994.6
2016-08-29T04:28:04.256Z,994.5
2016-08-29T04:28:28.385Z,994.5
2016-08-29T04:28:52.505Z,994.5
2016-08-29T04:29:16.632Z,994.5
2016-08-29T04:29:40.748Z,994.5
2016-08-29T04:30:05.195Z,994.5
2016-08-29T04:30:29.440Z,994.5
2016-08-29T04:30:53.560Z,994.5
2016-08-29T04:31:17.690Z,994.6
2016-08-29T04:31:41.801Z,994.5
2016-08-29T04:32:05.933Z,994.5
2016-08-29T04:32:30.046Z,994.5
2016-08-29T04:32:54.150Z,994.5
2016-08-29T04:33:18.269Z,994.5
2016-08-29T04:33:42.370Z,994.5
2016-08-29T04:34:06.470Z,994.5
2016-08-29T04:34:30.587Z,994.5
2016-08-29T04:34:54.701Z,994.5
2016-08-29T04:35:18.964Z,994.5
2016-08-29T04:35:43.093Z,994.5
2016-08-29T04:36:07.213Z,994.5
2016-08-29T04:36:31.336Z,994.5
2016-08-29T04:36:55.480Z,994.5
2016-08-29T04:37:19.616Z,994.5
2016-08-29T04:37:43.739Z,994.5
2016-08-29T04:38:07.844Z,994.6
2016-08-29T04:38:31.978Z,994.6
2016-08-29T04:38:56.098Z,994.6
2016-08-29T04:39:20.208Z,994.6
2016-08-29T04:39:44.318Z,994.6
2016-08-29T04:40:08.435Z,994.6
2016-08-29T04:40:32.552Z,994.6
2016-08-29T04:40:56.666Z,994.6
2016-08-29T04:41:20.810Z,994.7
2016-08-29T04:41:44.937Z,994.6
2016-08-29T04:42:09.041Z,994.6
2016-08-29T04:42:33.182Z,994.6
2016-08-29T04:42:57.324Z,994.7
2016-08-29T04:43:21.451Z,994.6
2016-08-29T04:43:45.581Z,994.6
2016-08-29T04:44:09.718Z,994.7
2016-08-29T04:44:33.832Z,994.7
2016-08-29T04:44:57.953Z,994.7
2016-08-29T04:45:22.063Z,994.7
2016-08-29T04:45:46.207Z,994.7
2016-08-29T04:46:10.359Z,994.7
2016-08-29T04:46:34.465Z,994.7
2016-08-29T04:46:58.587Z,994.7
2016-08-29T04:47:23.600Z,994.7
2016-08-29T04:47:47.726Z,994.8
2016-08-29T04:48:11.906Z,994.8
2016-08-29T04:48:36.045Z,994.7
2016-08-29T04:49:00.175Z,994.7
2016-08-29T04:49:24.301Z,994.8
2016-08-29T04:49:48.419Z,994.7
2016-08-29T04:50:12.568Z,994.7
2016-08-29T04:50:36.758Z,994.7
2016-08-29T04:51:00.885Z,994.7
2016-08-29T04:51:25.003Z,994.7
2016-08-29T04:51:49.126Z,994.7
2016-08-29T04:52:13.245Z,994.7
2016-08-29T04:52:37.368Z,994.7
2016-08-29T04:53:01.477Z,994.7
2016-08-29T04:53:25.582Z,994.7
2016-08-29T04:53:49.689Z,994.7
2016-08-29T04:54:13.810Z,994.7
2016-08-29T04:54:37.942Z,994.7
2016-08-29T04:55:02.048Z,994.7
2016-08-29T04:55:26.234Z,994.7
2016-08-29T04:55:50.367Z,994.7
2016-08-29T04:56:14.484Z,994.7
2016-08-29T04:56:38.617Z,994.7
2016-08-29T04:57:02.764Z,994.7
2016-08-29T04:57:26.876Z,994.7
2016-08-29T04:57:50.980Z,994.7
2016-08-29T04:58:15.087Z,994.7
2016-08-29T04:58:39.219Z,994.7
2016-08-29T04:59:03.331Z,994.8
2016-08-29T04:59:27.447Z,994.7
2016-08-29T04:59:51.555Z,994.8
2016-08-29T05:00:15.680Z,994.8
2016-08-29T05:00:39.995Z,994.7
2016-08-29T05:01:04.103Z,994.7
2016-08-29T05:01:28.220Z,994.8
2016-08-29T05:01:52.324Z,994.8
2016-08-29T05:02:16.443Z,994.8
2016-08-29T05:02:40.574Z,994.8
2016-08-29T05:03:04.684Z,994.8
2016-08-29T05:03:28.824Z,994.8
2016-08-29T05:03:52.955Z,994.8
2016-08-29T05:04:17.091Z,994.8
2016-08-29T05:04:41.213Z,994.8
2016-08-29T05:05:05.318Z,994.8
2016-08-29T05:05:29.506Z,994.9
2016-08-29T05:05:53.613Z,994.9
2016-08-29T05:06:17.745Z,994.9
2016-08-29T05:06:41.856Z,994.9
2016-08-29T05:07:05.970Z,994.9
2016-08-29T05:07:30.096Z,994.9
2016-08-29T05:07:54.213Z,994.9
2016-08-29T05:08:18.344Z,994.9
2016-08-29T05:08:42.476Z,994.9
2016-08-29T05:09:06.588Z,994.9
2016-08-29T05:09:30.711Z,994.9
2016-08-29T05:09:54.825Z,994.9
2016-08-29T05:10:18.922Z,994.9
2016-08-29T05:10:43.040Z,994.9
2016-08-29T05:11:07.159Z,994.9
2016-08-29T05:11:31.292Z,994.9
2016-08-29T05:11:55.420Z,994.9
2016-08-29T05:12:19.433Z,994.9
2016-08-29T05:12:43.573Z,994.9
2016-08-29T05:13:07.719Z,995